createdAt,value
2023-04-26T00:00:48.901Z,92.02
2023-04-26T00:03:51.794Z,91.50
2023-04-26T00:06:54.710Z,90.20
2023-04-26T00:09:57.179Z,89.57
2023-04-26T00:12:59.699Z,88.92
2023-04-26T00:16:02.114Z,88.99
2023-04-26T00:19:04.797Z,89.83
2023-04-26T00:22:08.742Z,89.78
2023-04-26T00:25:11.330Z,90.28
2023-04-26T00:28:13.830Z,90.43
2023-04-26T00:31:17.601Z,89.48
2023-04-26T00:34:20.077Z,89.36
2023-04-26T00:37:23.371Z,89.43
2023-04-26T00:40:26.191Z,89.24
2023-04-26T00:43:28.738Z,89.28
2023-04-26T00:46:31.954Z,88.96
2023-04-26T00:49:34.663Z,88.89
2023-04-26T00:52:37.619Z,90.95
2023-04-26T00:55:41.444Z,91.56
2023-04-26T00:58:44.376Z,93.01
2023-04-26T01:01:48.524Z,92.02
2023-04-26T01:04:51.702Z,91.45
2023-04-26T01:07:54.254Z,91.27
2023-04-26T01:10:57.428Z,91.97
2023-04-26T01:14:00.039Z,91.81
2023-04-26T01:17:03.630Z,92.50
2023-04-26T01:20:08.942Z,92.52
2023-04-26T01:23:11.840Z,91.81
2023-04-26T01:26:14.453Z,90.74
2023-04-26T01:29:21.676Z,89.73
2023-04-26T01:32:24.252Z,90.03
2023-04-26T01:35:26.818Z,90.45
2023-04-26T01:38:29.322Z,89.88
2023-04-26T01:41:32.773Z,91.36
2023-04-26T01:44:36.420Z,91.62
2023-04-26T01:47:38.880Z,91.06
2023-04-26T01:50:41.283Z,91.37
2023-04-26T01:53:43.721Z,90.70
2023-04-26T01:56:46.252Z,91.35
2023-04-26T01:59:48.789Z,91.41
2023-04-26T02:02:54.834Z,93.52
2023-04-26T02:05:58.892Z,93.49
2023-04-26T02:09:02.204Z,93.95
2023-04-26T02:12:04.623Z,93.35
2023-04-26T02:15:08.938Z,94.20
2023-04-26T02:18:11.681Z,92.40
2023-04-26T02:21:17.773Z,92.35
2023-04-26T02:24:20.309Z,94.29
2023-04-26T02:27:22.732Z,93.56
2023-04-26T02:30:25.069Z,93.62
2023-04-26T02:33:27.622Z,93.05
2023-04-26T02:36:30.420Z,94.22
2023-04-26T02:39:33.046Z,93.81
2023-04-26T02:42:35.794Z,94.36
2023-04-26T02:45:43.277Z,94.31
2023-04-26T02:48:47.737Z,94.18
2023-04-26T02:51:50.170Z,94.00
2023-04-26T02:54:52.725Z,94.05
2023-04-26T02:57:55.178Z,93.10
2023-04-26T03:01:01.036Z,94.08
2023-04-26T03:04:05.170Z,94.75
2023-04-26T03:07:09.568Z,94.32
2023-04-26T03:10:12.760Z,95.21
2023-04-26T03:13:16.558Z,95.60
2023-04-26T03:16:20.514Z,94.08
2023-04-26T03:19:23.132Z,94.67
2023-04-26T03:22:25.898Z,96.43
2023-04-26T03:25:28.271Z,95.12
2023-04-26T03:28:31.081Z,95.11
2023-04-26T03:31:33.663Z,95.07
2023-04-26T03:34:36.078Z,95.13
2023-04-26T03:37:39.886Z,95.58
2023-04-26T03:40:45.077Z,94.73
2023-04-26T03:43:47.815Z,94.34
2023-04-26T03:46:50.217Z,94.59
2023-04-26T03:49:52.943Z,95.29
2023-04-26T03:52:55.431Z,95.60
2023-04-26T03:55:58.237Z,96.30
2023-04-26T03:59:01.222Z,96.59
2023-04-26T04:02:04.120Z,95.57
2023-04-26T04:05:08.316Z,95.27
2023-04-26T04:08:12.112Z,93.97
2023-04-26T04:11:15.415Z,93.31
2023-04-26T04:14:19.195Z,94.45
2023-04-26T04:17:22.289Z,94.06
2023-04-26T04:20:25.505Z,94.49
2023-04-26T04:23:30.831Z,94.04
2023-04-26T04:26:34.266Z,94.25
2023-04-26T04:29:36.688Z,94.23
2023-04-26T04:32:40.233Z,93.45
2023-04-26T04:35:43.443Z,93.43
2023-04-26T04:38:45.903Z,93.71
2023-04-26T04:41:51.418Z,93.54
2023-04-26T04:44:55.167Z,94.32
2023-04-26T04:47:58.288Z,93.23
2023-04-26T04:51:02.471Z,92.90
2023-04-26T04:54:13.527Z,92.96
2023-04-26T04:57:16.859Z,92.55
2023-04-26T05:00:21.177Z,92.90
2023-04-26T05:03:28.797Z,92.36
2023-04-26T05:06:34.344Z,91.69
2023-04-26T05:09:37.227Z,91.87
2023-04-26T05:12:42.083Z,91.83
2023-04-26T05:15:44.427Z,92.76
2023-04-26T05:18:47.424Z,91.04
2023-04-26T05:21:50.070Z,90.39
2023-04-26T05:24:52.877Z,90.67
2023-04-26T05:27:55.395Z,90.29
2023-04-26T05:31:21.612Z,89.78
2023-04-26T05:34:47.491Z,90.42
2023-04-26T05:37:52.398Z,89.77
2023-04-26T05:40:57.326Z,90.16
2023-04-26T05:43:59.920Z,89.14
2023-04-26T05:47:02.481Z,87.86
2023-04-26T05:50:05.366Z,86.23
2023-04-26T05:53:08.796Z,86.14
2023-04-26T05:56:11.361Z,84.64
2023-04-26T05:59:13.908Z,84.32
2023-04-26T06:02:16.513Z,82.30
2023-04-26T06:05:19.231Z,82.11
2023-04-26T06:08:21.876Z,79.83
2023-04-26T06:11:26.817Z,77.52
2023-04-26T06:14:30.662Z,74.91
2023-04-26T06:17:37.789Z,70.53
2023-04-26T06:20:40.415Z,66.40
2023-04-26T06:23:43.258Z,64.79
2023-04-26T06:26:45.631Z,65.81
2023-04-26T06:29:48.481Z,62.56
2023-04-26T06:32:51.930Z,63.69
2023-04-26T06:35:54.402Z,63.94
2023-04-26T06:38:56.887Z,65.23
2023-04-26T06:42:03.583Z,61.95
2023-04-26T06:45:24.259Z,62.98
2023-04-26T06:48:27.415Z,64.21
2023-04-26T06:51:29.902Z,62.87
2023-04-26T06:54:35.931Z,61.32
2023-04-26T06:57:39.044Z,62.06
2023-04-26T07:00:41.498Z,59.76
2023-04-26T07:03:43.989Z,59.98
2023-04-26T07:06:46.974Z,60.40
2023-04-26T07:09:49.900Z,59.93
2023-04-26T07:12:52.445Z,60.35
2023-04-26T07:15:55.314Z,61.05
2023-04-26T07:19:01.063Z,57.92
2023-04-26T07:22:04.745Z,60.96
2023-04-26T07:25:07.528Z,60.16
2023-04-26T07:28:09.987Z,58.35
2023-04-26T07:31:12.742Z,57.98
2023-04-26T07:34:15.127Z,55.47
2023-04-26T07:37:17.522Z,55.62
2023-04-26T07:40:22.752Z,55.74
2023-04-26T07:43:26.563Z,54.23
2023-04-26T07:46:29.014Z,51.58
2023-04-26T07:49:31.731Z,54.06
2023-04-26T07:52:34.623Z,52.71
2023-04-26T07:55:39.715Z,53.07
2023-04-26T07:58:42.232Z,51.08
2023-04-26T08:01:44.716Z,51.07
2023-04-26T08:04:50.118Z,52.52
2023-04-26T08:07:52.857Z,47.37
2023-04-26T08:10:55.874Z,47.01
2023-04-26T08:13:58.296Z,46.11
2023-04-26T08:17:02.001Z,49.36
2023-04-26T08:20:06.100Z,43.52
2023-04-26T08:23:09.408Z,45.82
2023-04-26T08:26:11.879Z,43.97
2023-04-26T08:29:15.015Z,42.54
2023-04-26T08:32:17.530Z,39.13
2023-04-26T08:35:27.824Z,36.89
2023-04-26T08:38:30.792Z,36.10
2023-04-26T08:41:37.965Z,35.40
2023-04-26T08:44:43.468Z,31.26
2023-04-26T08:47:50.379Z,35.72
2023-04-26T08:50:54.145Z,32.56
2023-04-26T08:53:58.109Z,31.67
2023-04-26T08:57:01.836Z,34.46
2023-04-26T09:00:14.579Z,29.59
2023-04-26T09:03:17.049Z,30.36
2023-04-26T09:06:19.842Z,27.98
2023-04-26T09:09:24.402Z,31.88
2023-04-26T09:12:27.228Z,33.03
2023-04-26T09:15:29.783Z,28.94
2023-04-26T09:18:33.865Z,26.78
2023-04-26T09:21:44.923Z,28.04
2023-04-26T09:24:52.337Z,26.17
2023-04-26T09:27:54.862Z,25.30
2023-04-26T09:30:57.353Z,27.55
2023-04-26T09:34:00.940Z,30.13
2023-04-26T09:37:03.344Z,32.81
2023-04-26T09:40:18.117Z,34.02
2023-04-26T09:43:22.703Z,32.80
2023-04-26T09:46:25.247Z,33.33
2023-04-26T09:49:30.678Z,35.33
2023-04-26T09:52:43.376Z,34.41
2023-04-26T09:55:45.837Z,34.15
2023-04-26T09:58:48.693Z,36.16
2023-04-26T10:01:51.134Z,34.74
2023-04-26T10:04:56.205Z,37.08
2023-04-26T10:07:58.795Z,38.13
2023-04-26T10:11:04.526Z,37.10
2023-04-26T10:14:07.334Z,40.02
2023-04-26T10:17:11.773Z,37.39
2023-04-26T10:20:17.795Z,36.49
2023-04-26T10:23:25.575Z,38.58
2023-04-26T10:26:51.927Z,36.51
2023-04-26T10:29:54.391Z,35.88
2023-04-26T10:32:58.268Z,37.11
2023-04-26T10:36:12.766Z,38.12
2023-04-26T10:39:21.910Z,41.76
2023-04-26T10:42:30.834Z,34.50
2023-04-26T10:45:33.549Z,38.12
2023-04-26T10:48:38.001Z,31.99
2023-04-26T10:52:12.564Z,25.84
2023-04-26T10:55:38.387Z,29.33
2023-04-26T10:58:41.640Z,26.07
2023-04-26T11:01:44.942Z,25.85
2023-04-26T11:04:52.263Z,26.63
2023-04-26T11:08:24.904Z,24.10
2023-04-26T11:11:29.812Z,23.70
2023-04-26T11:14:35.724Z,24.95
2023-04-26T11:17:38.399Z,28.74
2023-04-26T11:20:41.134Z,26.24
2023-04-26T11:23:52.716Z,25.10
2023-04-26T11:26:55.166Z,27.89
2023-04-26T11:29:57.636Z,31.81
2023-04-26T11:33:01.342Z,31.47
2023-04-26T11:36:04.294Z,32.20
2023-04-26T11:39:07.167Z,31.79
2023-04-26T11:42:12.067Z,34.41
2023-04-26T11:45:17.646Z,34.02
2023-04-26T11:48:20.359Z,34.26
2023-04-26T11:51:24.088Z,34.71
2023-04-26T11:54:35.886Z,35.05
2023-04-26T11:57:41.075Z,36.48
2023-04-26T12:01:00.449Z,35.08
2023-04-26T12:04:03.041Z,36.33
2023-04-26T12:07:05.664Z,34.32
2023-04-26T12:10:17.971Z,34.28
2023-04-26T12:13:21.063Z,32.52
2023-04-26T12:16:26.600Z,34.97
2023-04-26T12:19:40.945Z,37.71
2023-04-26T12:23:16.959Z,37.07
2023-04-26T12:26:20.551Z,35.55
2023-04-26T12:29:23.215Z,33.14
2023-04-26T12:32:25.810Z,37.81
2023-04-26T12:35:28.239Z,35.23
2023-04-26T12:38:30.874Z,36.04
2023-04-26T12:41:33.933Z,35.52
2023-04-26T12:44:36.680Z,36.65
2023-04-26T12:47:39.628Z,34.44
2023-04-26T12:50:42.392Z,36.04
2023-04-26T12:53:44.776Z,37.03
2023-04-26T12:56:48.596Z,37.97
2023-04-26T12:59:51.057Z,36.22
2023-04-26T13:02:53.608Z,38.50
2023-04-26T13:05:56.146Z,40.36
2023-04-26T13:08:58.853Z,36.80
2023-04-26T13:12:01.264Z,37.57
2023-04-26T13:15:04.222Z,40.57
2023-04-26T13:18:06.743Z,39.46
2023-04-26T13:21:09.267Z,40.25
2023-04-26T13:24:11.912Z,38.71
2023-04-26T13:27:14.622Z,37.47
2023-04-26T13:30:18.371Z,38.95
2023-04-26T13:33:21.473Z,37.51
2023-04-26T13:36:24.062Z,38.73
2023-04-26T13:39:28.784Z,36.83
2023-04-26T13:42:32.547Z,37.69
2023-04-26T13:45:36.038Z,38.64
2023-04-26T13:48:38.473Z,36.55
2023-04-26T13:51:41.786Z,39.62
2023-04-26T13:54:44.218Z,39.84
2023-04-26T13:57:46.725Z,40.32
2023-04-26T14:00:49.311Z,40.00
2023-04-26T14:03:54.226Z,41.16
2023-04-26T14:06:58.633Z,41.02
2023-04-26T14:10:01.436Z,40.55
2023-04-26T14:13:04.279Z,40.43
2023-04-26T14:16:07.126Z,40.53
2023-04-26T14:19:09.626Z,43.08
2023-04-26T14:22:13.054Z,43.19
2023-04-26T14:25:15.850Z,42.08
2023-04-26T14:28:18.574Z,41.74
2023-04-26T14:31:22.660Z,40.45
2023-04-26T14:34:26.323Z,40.01
2023-04-26T14:37:28.875Z,42.50
2023-04-26T14:40:31.969Z,42.06
2023-04-26T14:43:34.472Z,43.06
2023-04-26T14:46:37.432Z,41.95
2023-04-26T14:49:39.790Z,40.77
2023-04-26T14:52:42.276Z,44.13
2023-04-26T14:55:44.731Z,41.41
2023-04-26T14:58:47.131Z,41.48
2023-04-26T15:01:50.247Z,43.50
2023-04-26T15:04:52.966Z,44.01
2023-04-26T15:07:55.554Z,44.15
2023-04-26T15:10:58.041Z,45.14
2023-04-26T15:14:00.544Z,43.88
2023-04-26T15:17:03.110Z,44.63
2023-04-26T15:20:06.458Z,45.89
2023-04-26T15:23:09.027Z,46.12
2023-04-26T15:26:11.622Z,44.49
2023-04-26T15:29:14.241Z,44.20
2023-04-26T15:32:16.674Z,45.40
2023-04-26T15:35:19.163Z,46.01
2023-04-26T15:38:22.066Z,44.93
2023-04-26T15:41:24.474Z,46.84
2023-04-26T15:44:26.963Z,47.33
2023-04-26T15:47:29.441Z,47.35
2023-04-26T15:50:34.362Z,46.03
2023-04-26T15:53:41.346Z,47.36
2023-04-26T15:56:48.598Z,47.50
2023-04-26T15:59:51.244Z,46.41
2023-04-26T16:02:54.027Z,45.91
2023-04-26T16:05:56.613Z,45.96
2023-04-26T16:09:02.232Z,47.52
2023-04-26T16:12:05.599Z,46.29
2023-04-26T16:15:12.203Z,48.21
2023-04-26T16:18:14.765Z,47.70
2023-04-26T16:21:17.346Z,47.35
2023-04-26T16:24:20.166Z,48.42
2023-04-26T16:27:22.625Z,47.87
2023-04-26T16:30:25.458Z,47.28
2023-04-26T16:33:28.098Z,46.13
2023-04-26T16:36:31.583Z,47.69
2023-04-26T16:39:36.025Z,45.81
2023-04-26T16:42:42.074Z,49.79
2023-04-26T16:45:44.517Z,47.04
2023-04-26T16:48:47.561Z,48.65
2023-04-26T16:51:56.375Z,47.29
2023-04-26T16:54:59.283Z,48.91
2023-04-26T16:58:01.980Z,48.78
2023-04-26T17:01:04.810Z,49.35
2023-04-26T17:04:08.230Z,49.40
2023-04-26T17:07:12.932Z,50.89
2023-04-26T17:10:15.376Z,49.83
2023-04-26T17:13:18.016Z,49.69
2023-04-26T17:16:21.037Z,50.92
2023-04-26T17:19:24.208Z,51.99
2023-04-26T17:22:26.766Z,52.19
2023-04-26T17:25:29.174Z,50.96
2023-04-26T17:28:33.034Z,54.18
2023-04-26T17:31:35.499Z,50.76
2023-04-26T17:34:38.804Z,53.70
2023-04-26T17:37:46.260Z,55.09
2023-04-26T17:40:53.626Z,54.80
2023-04-26T17:43:56.185Z,53.09
2023-04-26T17:46:58.508Z,53.29
2023-04-26T17:50:00.991Z,54.92
2023-04-26T17:53:05.453Z,55.55
2023-04-26T17:56:10.032Z,55.76
2023-04-26T17:59:13.019Z,54.35
2023-04-26T18:02:15.906Z,54.94
2023-04-26T18:05:18.541Z,55.96
2023-04-26T18:08:21.467Z,55.59
2023-04-26T18:11:24.135Z,56.38
2023-04-26T18:14:27.947Z,53.84
2023-04-26T18:17:30.431Z,55.98
2023-04-26T18:20:35.746Z,58.50
2023-04-26T18:23:38.701Z,59.05
2023-04-26T18:26:41.528Z,55.79
2023-04-26T18:29:44.212Z,57.01
2023-04-26T18:32:47.044Z,58.95
2023-04-26T18:35:50.498Z,56.15
2023-04-26T18:38:53.040Z,58.75
2023-04-26T18:41:55.408Z,58.58
2023-04-26T18:44:58.034Z,61.24
2023-04-26T18:48:00.721Z,57.39
2023-04-26T18:51:04.077Z,61.14
2023-04-26T18:54:06.499Z,58.27
2023-04-26T18:57:10.703Z,57.72
2023-04-26T19:00:14.161Z,61.22
2023-04-26T19:03:17.287Z,59.02
2023-04-26T19:06:20.190Z,60.45
2023-04-26T19:09:23.075Z,64.95
2023-04-26T19:12:26.429Z,59.80
2023-04-26T19:15:29.443Z,64.90
2023-04-26T19:18:32.406Z,63.77
2023-04-26T19:21:35.165Z,64.30
2023-04-26T19:24:38.707Z,62.70
2023-04-26T19:27:41.522Z,57.04
2023-04-26T19:30:44.347Z,53.24
2023-04-26T19:33:47.038Z,53.37
2023-04-26T19:36:50.313Z,52.83
2023-04-26T19:39:52.988Z,53.48
2023-04-26T19:42:55.420Z,51.94
2023-04-26T19:45:58.384Z,50.26
2023-04-26T19:49:01.003Z,49.51
2023-04-26T19:52:03.523Z,50.99
2023-04-26T19:55:06.348Z,49.27
2023-04-26T19:58:12.952Z,49.18
2023-04-26T20:01:16.303Z,50.02
2023-04-26T20:04:19.407Z,48.87
2023-04-26T20:07:22.427Z,48.95
2023-04-26T20:10:25.396Z,49.58
2023-04-26T20:13:28.881Z,52.30
2023-04-26T20:16:31.539Z,48.76
2023-04-26T20:19:34.258Z,49.02
2023-04-26T20:22:37.140Z,49.11
2023-04-26T20:25:39.789Z,48.79
2023-04-26T20:28:42.726Z,47.37
2023-04-26T20:31:45.567Z,47.48
2023-04-26T20:34:48.414Z,48.75
2023-04-26T20:37:51.343Z,48.12
2023-04-26T20:40:54.189Z,49.37
2023-04-26T20:43:56.678Z,49.82
2023-04-26T20:46:59.123Z,48.88
2023-04-26T20:50:01.547Z,48.83
2023-04-26T20:53:07.241Z,49.19
2023-04-26T20:56:09.791Z,49.31
2023-04-26T20:59:12.519Z,49.25
2023-04-26T21:02:15.947Z,50.00
2023-04-26T21:05:18.463Z,52.20
2023-04-26T21:08:20.937Z,51.03
2023-04-26T21:11:23.489Z,50.83
2023-04-26T21:14:26.241Z,52.50
2023-04-26T21:17:28.643Z,50.71
2023-04-26T21:20:31.095Z,51.62
2023-04-26T21:23:33.968Z,51.09
2023-04-26T21:26:36.390Z,51.44
2023-04-26T21:29:39.190Z,51.04
2023-04-26T21:32:41.909Z,52.43
2023-04-26T21:35:44.311Z,53.25
2023-04-26T21:38:46.949Z,53.44
2023-04-26T21:41:49.936Z,51.23
2023-04-26T21:44:52.614Z,52.29
2023-04-26T21:47:54.972Z,50.74
2023-04-26T21:50:57.651Z,49.60
2023-04-26T21:54:00.053Z,51.66
2023-04-26T21:57:06.588Z,52.19
2023-04-26T22:00:11.969Z,49.23
2023-04-26T22:03:18.573Z,50.42
2023-04-26T22:06:21.530Z,49.74
2023-04-26T22:09:24.296Z,52.59
2023-04-26T22:12:27.632Z,49.45
2023-04-26T22:15:30.150Z,48.78
2023-04-26T22:18:32.602Z,50.36
2023-04-26T22:21:35.090Z,50.73
2023-04-26T22:24:37.564Z,51.47
2023-04-26T22:27:39.997Z,50.01
2023-04-26T22:30:42.661Z,49.85
2023-04-26T22:33:45.073Z,50.81
2023-04-26T22:36:47.840Z,51.03
2023-04-26T22:39:50.398Z,50.26
2023-04-26T22:42:53.917Z,51.35
2023-04-26T22:45:56.380Z,51.31
2023-04-26T22:48:58.785Z,52.92
2023-04-26T22:52:07.997Z,51.31
2023-04-26T22:55:14.348Z,53.26
2023-04-26T22:58:17.922Z,52.05
2023-04-26T23:01:20.513Z,52.58
2023-04-26T23:04:22.934Z,53.26
2023-04-26T23:07:25.415Z,53.94
2023-04-26T23:10:28.662Z,54.13
2023-04-26T23:13:31.043Z,53.53
2023-04-26T23:16:33.871Z,54.14
2023-04-26T23:19:36.622Z,54.19
2023-04-26T23:22:41.848Z,54.41
2023-04-26T23:25:44.338Z,55.55
2023-04-26T23:28:46.839Z,56.71
2023-04-26T23:31:49.460Z,54.75
2023-04-26T23:34:52.391Z,55.55
2023-04-26T23:37:54.974Z,55.27
2023-04-26T23:40:57.528Z,55.30
2023-04-26T23:43:59.923Z,55.51
2023-04-26T23:47:02.401Z,56.31
2023-04-26T23:50:05.242Z,55.16
2023-04-26T23:53:08.468Z,55.12
2023-04-26T23:56:10.955Z,55.19
2023-04-26T23:59:14.276Z,56.30
